ADDS METAR Data INFO
IDs: Format: Raw Decoded Include TAF

Data at: 0001 UTC 19 Feb 2018

KTLH 182353Z 18005KT 10SM FEW080 FEW250 23/17 A3020 RMK AO2 SLP226 T02280172 10283 20228 53011